Terminal Aerodrome Forecast
Issued by NWS

Home | Current Version | Previous Version | Text Only | Print | Product List | Glossary On
Versions: 1 2 3 4 5 6 7 8 9 10 11 12 13 14
000
FTUS45 KGGW 181120
TAFSDY
TAF
KSDY 181120Z 1812/1912 28011KT P6SM SCT100
     FM181700 26014KT P6SM FEW140
     FM190000 25006KT P6SM FEW140
     FM190500 19005KT P6SM BKN120
     FM190900 18005KT P6SM SCT100=

USA.gov is the U.S. government's official web portal to all federal, state and local government web resources and services.